Time;durP1;ratioP1;P1;durP2;ratioP2;P2;SDS_P1;SDS_P2;PMS_P1;PMS_P2;Temp;Humidity;BMP_temperature;BMP_pressure;BME280_temperature;BME280_humidity;BME280_pressure;Samples;Min_cycle;Max_cycle;Signal;HPM_P1;HPM_P2
2023/04/06 00:01:56;;;;;;;21.17;13.02;;;;;;;1.44;71.29;101771.28;4900454;29;20039;-75
2023/04/06 00:04:21;;;;;;;20.05;13.70;;;;;;;1.42;71.77;101761.69;4946862;28;20054;-74
2023/04/06 00:06:47;;;;;;;22.05;13.00;;;;;;;1.41;72.04;101760.84;4929672;29;20452;-75
2023/04/06 00:09:12;;;;;;;21.10;13.70;;;;;;;1.39;72.31;101767.63;4898037;29;20137;-74
2023/04/06 00:11:38;;;;;;;19.33;13.20;;;;;;;1.36;72.49;101759.75;4920930;29;20073;-75
2023/04/06 00:14:03;;;;;;;21.83;13.25;;;;;;;1.37;72.38;101764.97;4909452;29;20051;-75
2023/04/06 00:16:30;;;;;;;21.80;14.25;;;;;;;1.30;73.24;101757.78;4906294;29;20553;-75
2023/04/06 00:18:55;;;;;;;19.90;13.48;;;;;;;1.28;74.33;101763.72;4907595;29;20078;-74
2023/04/06 00:21:23;;;;;;;21.80;13.07;;;;;;;1.26;73.86;101758.47;4927429;29;20169;-74
2023/04/06 00:23:48;;;;;;;24.92;14.70;;;;;;;1.27;73.00;101759.38;4931452;29;20043;-75
2023/04/06 00:26:16;;;;;;;22.08;14.05;;;;;;;1.25;72.57;101751.59;4939607;29;20054;-74
2023/04/06 00:28:42;;;;;;;24.90;14.05;;;;;;;1.25;72.87;101755.84;4920629;29;20582;-74
2023/04/06 00:31:07;;;;;;;22.75;13.77;;;;;;;1.27;72.55;101747.34;4922029;29;20046;-74
2023/04/06 00:33:33;;;;;;;31.27;14.48;;;;;;;1.29;71.66;101744.81;4903990;29;20035;-74
2023/04/06 00:35:58;;;;;;;22.70;13.85;;;;;;;1.29;71.61;101748.28;4933509;29;20134;-75
2023/04/06 00:38:23;;;;;;;21.15;14.43;;;;;;;1.26;71.18;101740.41;4919440;29;20498;-75
2023/04/06 00:40:50;;;;;;;23.88;14.85;;;;;;;1.30;70.48;101739.72;4947606;28;20110;-74
2023/04/06 00:43:15;;;;;;;21.27;14.07;;;;;;;1.31;70.44;101738.03;4923234;29;20051;-75
2023/04/06 00:45:59;;;;;;;22.73;14.32;;;;;;;1.32;70.21;101732.94;4917792;29;20048;-74
2023/04/06 00:48:25;;;;;;;21.52;13.82;;;;;;;1.31;70.59;101736.31;4939457;28;20174;-74
2023/04/06 00:50:50;;;;;;;19.52;13.90;;;;;;;1.32;70.16;101735.53;4932274;29;20507;-75
2023/04/06 00:53:17;;;;;;;20.83;14.45;;;;;;;1.30;70.37;101725.94;4916319;28;20049;-75
2023/04/06 00:55:42;;;;;;;18.92;13.45;;;;;;;1.32;70.24;101729.44;4906662;29;20044;-74
2023/04/06 00:58:08;;;;;;;21.75;14.02;;;;;;;1.33;70.04;101719.19;4925213;28;20491;-74
2023/04/06 01:00:34;;;;;;;19.42;13.40;;;;;;;1.34;70.11;101718.38;4919750;28;20479;-70
2023/04/06 01:03:00;;;;;;;20.10;14.63;;;;;;;1.33;70.66;101720.88;4924758;28;20047;-70
2023/04/06 01:05:26;;;;;;;21.10;14.50;;;;;;;1.32;70.35;101719.13;4917938;29;20051;-70
2023/04/06 01:07:52;;;;;;;24.27;14.75;;;;;;;1.31;70.33;101717.38;4919318;29;20043;-70
2023/04/06 01:10:26;;;;;;;20.98;14.35;;;;;;;1.28;70.43;101706.91;4904989;29;20463;-70
2023/04/06 01:12:51;;;;;;;21.13;13.95;;;;;;;1.25;70.57;101702.53;4904319;28;20047;-70
2023/04/06 01:15:17;;;;;;;20.13;13.85;;;;;;;1.23;69.70;101701.56;4908122;29;20046;-70
2023/04/06 01:17:42;;;;;;;20.98;14.35;;;;;;;1.24;69.83;101705.91;4930632;28;20036;-70
2023/04/06 01:20:08;;;;;;;21.80;13.50;;;;;;;1.25;69.26;101705.09;4937033;28;20061;-70
2023/04/06 01:22:34;;;;;;;21.63;13.88;;;;;;;1.29;69.25;101704.38;4910283;28;20511;-70
2023/04/06 01:24:59;;;;;;;22.42;12.82;;;;;;;1.37;68.28;101703.00;4894033;29;20069;-70
2023/04/06 01:27:26;;;;;;;19.63;13.35;;;;;;;1.38;68.27;101697.00;4896638;28;20042;-70
2023/04/06 01:29:52;;;;;;;22.33;13.82;;;;;;;1.40;68.08;101686.75;4892585;29;20035;-71
2023/04/06 01:32:18;;;;;;;22.73;13.57;;;;;;;1.45;67.06;101694.66;4902201;28;20051;-70
2023/04/06 01:34:43;;;;;;;21.70;13.65;;;;;;;1.50;66.93;101683.69;4935320;28;20045;-74
2023/04/06 01:37:09;;;;;;;20.77;13.23;;;;;;;1.58;67.01;101685.69;4951857;28;20062;-70
2023/04/06 01:39:35;;;;;;;20.85;13.27;;;;;;;1.61;66.22;101683.22;4909828;29;20482;-70
2023/04/06 01:42:00;;;;;;;22.42;13.38;;;;;;;1.61;66.48;101681.53;4941948;28;20040;-70
2023/04/06 01:44:25;;;;;;;19.85;13.70;;;;;;;1.62;66.95;101667.78;4940586;29;20044;-70
2023/04/06 01:46:51;;;;;;;20.50;12.85;;;;;;;1.60;67.17;101674.59;4944654;28;20051;-70
2023/04/06 01:49:16;;;;;;;20.55;13.13;;;;;;;1.57;68.14;101671.91;4910970;29;20039;-70
2023/04/06 01:51:42;;;;;;;26.42;14.43;;;;;;;1.55;68.31;101668.38;4926644;28;20496;-75
2023/04/06 01:54:07;;;;;;;18.60;13.40;;;;;;;1.52;68.13;101666.56;4924879;29;20039;-75
2023/04/06 01:56:33;;;;;;;22.65;14.35;;;;;;;1.49;68.76;101660.38;4925212;28;20043;-74
2023/04/06 01:58:59;;;;;;;25.25;14.90;;;;;;;1.50;68.76;101657.84;4938884;28;20074;-75
2023/04/06 02:01:25;;;;;;;24.70;14.48;;;;;;;1.52;69.38;101661.41;4911191;28;20384;-71
2023/04/06 02:03:51;;;;;;;20.75;14.02;;;;;;;1.56;68.38;101644.31;4935234;28;20054;-70
2023/04/06 02:06:16;;;;;;;21.77;14.63;;;;;;;1.63;68.20;101654.03;4923950;28;20044;-70
2023/04/06 02:08:41;;;;;;;23.02;14.98;;;;;;;1.69;67.63;101651.69;4940706;29;20066;-70
2023/04/06 02:11:07;;;;;;;23.80;14.55;;;;;;;1.73;67.81;101650.09;4910659;28;20044;-70
2023/04/06 02:13:33;;;;;;;23.10;14.63;;;;;;;1.76;68.26;101639.00;4935715;29;20062;-70
2023/04/06 02:15:58;;;;;;;23.55;14.52;;;;;;;1.77;67.44;101641.66;4930535;28;20090;-70
2023/04/06 02:18:24;;;;;;;22.05;14.43;;;;;;;1.79;67.14;101640.00;4911447;29;20041;-70
2023/04/06 02:20:50;;;;;;;22.83;14.68;;;;;;;1.77;68.71;101638.16;4913783;28;20452;-70
2023/04/06 02:23:16;;;;;;;23.77;15.07;;;;;;;1.75;69.53;101635.53;4938922;28;20075;-70
2023/04/06 02:25:41;;;;;;;23.77;14.77;;;;;;;1.74;69.24;101628.63;4921919;28;20043;-70
2023/04/06 02:28:07;;;;;;;28.08;15.05;;;;;;;1.74;69.40;101626.03;4920794;29;20127;-74
2023/04/06 02:30:33;;;;;;;22.55;15.40;;;;;;;1.75;69.24;101620.03;4908314;28;20035;-75
2023/04/06 02:33:02;;;;;;;22.67;14.30;;;;;;;1.76;69.68;101624.38;4916881;29;20039;-75
2023/04/06 02:35:31;;;;;;;25.13;15.93;;;;;;;1.78;69.72;101621.84;4923050;28;20085;-75
2023/04/06 02:37:56;;;;;;;24.95;15.18;;;;;;;1.76;70.19;101613.16;4946180;29;20131;-75
2023/04/06 02:40:21;;;;;;;21.92;15.52;;;;;;;1.78;70.70;101616.69;4922590;28;20043;-74
2023/04/06 02:42:47;;;;;;;25.40;16.10;;;;;;;1.78;71.42;101616.69;4939155;28;20051;-74
2023/04/06 02:45:14;;;;;;;26.85;16.88;;;;;;;1.82;70.16;101618.56;4911497;28;20586;-75
2023/04/06 02:47:40;;;;;;;24.73;15.30;;;;;;;1.83;70.21;101609.97;4934716;28;20035;-75
2023/04/06 02:50:24;;;;;;;27.30;16.35;;;;;;;1.85;68.69;101606.63;4913215;29;20109;-74
2023/04/06 02:52:49;;;;;;;26.58;16.48;;;;;;;1.87;69.40;101611.84;4949901;29;20043;-74
2023/04/06 02:55:15;;;;;;;25.73;16.17;;;;;;;1.85;71.74;101608.31;4915604;28;20039;-75
2023/04/06 02:57:40;;;;;;;22.45;15.85;;;;;;;1.83;71.60;101603.09;4933561;28;20041;-75
2023/04/06 03:00:26;;;;;;;30.27;16.77;;;;;;;1.84;71.34;101607.44;4926033;28;20035;-75
2023/04/06 03:02:51;;;;;;;25.48;16.67;;;;;;;1.81;71.24;101603.88;4932564;28;20067;-74
2023/04/06 03:05:17;;;;;;;25.10;16.42;;;;;;;1.83;71.19;101602.22;4948776;28;20093;-70
2023/04/06 03:07:42;;;;;;;29.17;17.35;;;;;;;1.82;71.75;101588.41;4938287;28;20117;-70
2023/04/06 03:10:09;;;;;;;26.88;17.85;;;;;;;1.84;72.02;101596.22;4924045;29;20174;-75
2023/04/06 03:12:35;;;;;;;23.67;17.13;;;;;;;1.85;72.21;101593.72;4917184;28;20065;-75
2023/04/06 03:15:00;;;;;;;27.00;18.23;;;;;;;1.83;71.95;101592.75;4952333;28;20070;-75
2023/04/06 03:17:26;;;;;;;23.65;16.70;;;;;;;1.90;70.01;101592.16;4911901;28;20069;-74
2023/04/06 03:19:51;;;;;;;24.52;17.10;;;;;;;1.93;70.94;101582.78;4947842;28;20041;-70
2023/04/06 03:22:17;;;;;;;29.73;17.88;;;;;;;1.98;70.28;101588.97;4922830;28;20046;-70
2023/04/06 03:24:42;;;;;;;24.77;16.45;;;;;;;2.01;69.92;101587.38;4934103;28;20042;-70
2023/04/06 03:27:07;;;;;;;26.20;17.38;;;;;;;2.02;70.78;101586.53;4910187;28;20047;-70
2023/04/06 03:29:33;;;;;;;27.15;18.02;;;;;;;2.00;71.36;101580.44;4950879;28;20100;-70
2023/04/06 03:31:59;;;;;;;30.02;18.13;;;;;;;2.03;70.78;101587.44;4943310;28;20393;-70
2023/04/06 03:34:24;;;;;;;24.70;17.05;;;;;;;2.06;70.49;101592.72;4909491;29;20395;-74
2023/04/06 03:36:50;;;;;;;29.25;18.25;;;;;;;2.06;70.76;101583.25;4929513;28;20035;-74
2023/04/06 03:39:15;;;;;;;30.02;18.30;;;;;;;2.08;71.25;101580.69;4914448;29;20043;-74
2023/04/06 03:41:41;;;;;;;25.85;17.85;;;;;;;2.10;70.84;101585.91;4904899;29;20452;-74
2023/04/06 03:44:09;;;;;;;28.23;18.52;;;;;;;2.13;70.00;101584.34;4904377;29;20060;-74
2023/04/06 03:46:54;;;;;;;31.25;19.42;;;;;;;2.16;70.10;101575.81;4946580;28;20577;-74
2023/04/06 03:49:20;;;;;;;29.27;19.13;;;;;;;2.17;70.56;101565.53;4922019;29;20050;-74
2023/04/06 03:51:46;;;;;;;30.73;19.05;;;;;;;2.18;71.02;101567.25;4911585;28;20035;-74
2023/04/06 03:54:11;;;;;;;27.95;18.27;;;;;;;2.18;71.34;101568.97;4940726;28;20087;-75
2023/04/06 03:56:37;;;;;;;28.92;18.40;;;;;;;2.20;70.32;101557.88;4923726;29;20046;-75
2023/04/06 03:59:02;;;;;;;29.40;20.20;;;;;;;2.20;70.61;101560.44;4921730;29;20031;-74
2023/04/06 04:01:47;;;;;;;28.85;19.27;;;;;;;2.22;69.89;101568.25;4922783;28;20031;-74
2023/04/06 04:04:12;;;;;;;28.70;19.63;;;;;;;2.20;70.26;101569.94;4936257;28;20541;-74
2023/04/06 05:19:57;;;;;;;34.60;21.23;;;;;;;2.20;72.32;101563.03;4804250;23;20054;-73
2023/04/06 05:22:22;;;;;;;31.50;21.48;;;;;;;2.20;72.50;101557.88;4924797;28;20396;-73
2023/04/06 05:24:48;;;;;;;33.78;21.08;;;;;;;2.23;71.85;101560.56;4941773;28;20044;-73
2023/04/06 05:27:13;;;;;;;36.67;21.98;;;;;;;2.27;73.02;101565.81;4950520;28;20426;-73
2023/04/06 05:29:39;;;;;;;31.67;21.05;;;;;;;2.30;74.31;101564.22;4915860;28;20035;-73
2023/04/06 05:32:05;;;;;;;34.50;20.77;;;;;;;2.33;74.14;101566.03;4923469;28;20152;-73
2023/04/06 05:34:31;;;;;;;29.25;21.23;;;;;;;2.36;74.56;101563.56;4923743;28;20050;-73
2023/04/06 05:36:56;;;;;;;33.53;22.20;;;;;;;2.39;74.89;101564.53;4943934;29;20039;-73
2023/04/06 05:39:22;;;;;;;33.88;22.75;;;;;;;2.40;75.15;101555.94;4931947;29;20387;-74
2023/04/06 05:41:49;;;;;;;37.50;20.63;;;;;;;2.42;75.54;101551.69;4933257;29;20039;-73
2023/04/06 05:44:14;;;;;;;32.88;23.15;;;;;;;2.44;75.29;101554.31;4942975;28;20069;-73
2023/04/06 05:46:40;;;;;;;32.08;21.80;;;;;;;2.43;74.68;101545.69;4923204;29;20049;-73
2023/04/06 05:49:05;;;;;;;33.47;21.15;;;;;;;2.45;74.91;101544.88;4923490;28;20046;-69
2023/04/06 05:51:31;;;;;;;32.70;21.42;;;;;;;2.48;74.97;101550.16;4966933;28;20026;-71
2023/04/06 05:53:57;;;;;;;32.00;22.13;;;;;;;2.51;74.98;101552.84;4955371;28;20043;-72
2023/04/06 05:56:23;;;;;;;35.55;22.48;;;;;;;2.53;75.24;101549.47;4940544;28;20027;-71
2023/04/06 05:58:49;;;;;;;32.78;22.60;;;;;;;2.57;75.99;101551.34;4934903;28;20042;-72
2023/04/06 06:01:15;;;;;;;35.10;22.75;;;;;;;2.62;75.70;101548.03;4952785;28;20030;-71
2023/04/06 06:03:40;;;;;;;33.60;23.48;;;;;;;2.65;75.59;101548.09;4941265;28;20058;-72
2023/04/06 06:06:06;;;;;;;33.33;23.85;;;;;;;2.66;75.09;101547.25;4972329;28;20371;-69
2023/04/06 06:08:31;;;;;;;32.83;23.42;;;;;;;2.67;74.74;101556.78;4957272;28;20081;-69
2023/04/06 06:10:57;;;;;;;34.35;23.85;;;;;;;2.69;76.10;101550.84;4940209;28;20050;-69
2023/04/06 06:13:23;;;;;;;32.92;22.00;;;;;;;2.72;75.92;101548.34;4955836;28;20159;-69
2023/04/06 06:15:50;;;;;;;38.22;25.33;;;;;;;2.74;75.94;101554.47;4956613;28;20042;-69
2023/04/06 06:18:15;;;;;;;34.95;24.45;;;;;;;2.75;76.15;101552.75;4928080;29;20482;-73
2023/04/06 06:20:41;;;;;;;33.33;23.48;;;;;;;2.77;76.26;101546.78;4962219;28;20039;-73
2023/04/06 06:23:06;;;;;;;33.25;23.92;;;;;;;2.80;76.16;101552.88;4925174;28;20039;-73
2023/04/06 06:25:32;;;;;;;36.30;24.67;;;;;;;2.82;77.79;101552.09;4949447;28;20045;-73
2023/04/06 06:27:58;;;;;;;35.42;25.00;;;;;;;2.86;77.01;101542.72;4958351;28;20043;-73
2023/04/06 06:33:45;;;;;;;38.67;25.23;;;;;;;2.99;77.33;101543.97;4967776;28;20574;-73
2023/04/06 06:36:12;;;;;;;34.55;23.80;;;;;;;3.08;77.16;101555.50;4933143;28;20042;-73
2023/04/06 06:38:38;;;;;;;33.33;23.83;;;;;;;3.14;76.26;101561.69;4926384;28;20122;-73
2023/04/06 06:41:04;;;;;;;37.70;24.10;;;;;;;3.25;75.27;101566.38;4929372;29;20067;-73
2023/04/06 06:43:29;;;;;;;33.58;22.33;;;;;;;3.39;74.11;101560.69;4952916;28;20093;-73
2023/04/06 06:45:55;;;;;;;32.85;21.52;;;;;;;3.55;73.43;101559.44;4923768;28;20125;-73
2023/04/06 06:48:20;;;;;;;31.23;20.85;;;;;;;3.65;70.88;101556.28;4940737;28;20414;-69
2023/04/06 06:50:48;;;;;;;31.15;20.65;;;;;;;3.76;71.60;101557.44;4926109;28;20130;-73
2023/04/06 06:53:13;;;;;;;29.50;20.35;;;;;;;3.85;70.69;101555.94;4957163;28;20026;-73
2023/04/06 06:55:39;;;;;;;27.70;20.05;;;;;;;3.90;70.34;101554.38;4941537;28;20038;-73
2023/04/06 06:58:04;;;;;;;28.65;19.27;;;;;;;3.97;69.26;101553.69;4939534;28;20391;-73
2023/04/06 07:00:31;;;;;;;29.35;18.50;;;;;;;4.01;68.41;101550.34;4941005;28;20055;-73
2023/04/06 07:02:56;;;;;;;27.92;18.70;;;;;;;4.07;69.25;101555.69;4943465;28;20046;-73
2023/04/06 07:05:21;;;;;;;29.35;18.98;;;;;;;4.10;67.29;101549.72;4945091;28;20050;-73
2023/04/06 07:07:47;;;;;;;26.65;19.67;;;;;;;4.14;67.11;101555.00;4935046;28;20038;-73
2023/04/06 07:10:12;;;;;;;29.55;20.45;;;;;;;4.16;69.15;101548.13;4934782;28;20041;-73
2023/04/06 07:12:38;;;;;;;27.88;20.35;;;;;;;4.23;70.16;101537.94;4922987;28;20038;-73
2023/04/06 07:15:04;;;;;;;28.58;19.65;;;;;;;4.30;69.64;101539.84;4941321;28;20039;-73
2023/04/06 07:17:30;;;;;;;28.67;19.25;;;;;;;4.34;68.09;101541.69;4926323;28;20039;-73
2023/04/06 07:19:55;;;;;;;29.30;18.70;;;;;;;4.36;68.24;101539.13;4949549;28;20043;-73
2023/04/06 07:22:21;;;;;;;27.27;19.50;;;;;;;4.37;67.78;101540.88;4953084;28;20035;-73
2023/04/06 07:24:46;;;;;;;28.85;19.02;;;;;;;4.42;67.91;101547.06;4910771;28;20136;-73
2023/04/06 07:27:12;;;;;;;31.33;19.00;;;;;;;4.42;66.90;101534.94;4971411;28;20039;-73
2023/04/06 07:29:37;;;;;;;30.23;19.73;;;;;;;4.45;67.22;101537.66;4940509;28;20057;-73
2023/04/06 07:32:03;;;;;;;31.25;18.38;;;;;;;4.48;66.64;101527.34;4926946;28;20031;-73
2023/04/06 07:34:28;;;;;;;26.50;18.48;;;;;;;4.51;66.56;101530.00;4956595;28;20039;-73
2023/04/06 07:36:54;;;;;;;27.95;18.80;;;;;;;4.57;67.42;101528.38;4937594;28;20513;-73
2023/04/06 07:39:20;;;;;;;26.45;17.48;;;;;;;4.63;66.86;101533.72;4913051;29;20031;-73
2023/04/06 07:41:45;;;;;;;30.85;18.90;;;;;;;4.66;66.79;101523.41;4921595;28;20510;-73
2023/04/06 07:44:11;;;;;;;28.27;18.52;;;;;;;4.73;67.65;101532.25;4928599;29;20035;-73
2023/04/06 07:46:36;;;;;;;28.48;18.83;;;;;;;4.77;66.24;101528.84;4955589;28;20146;-73
2023/04/06 07:49:02;;;;;;;26.75;18.80;;;;;;;4.83;66.17;101534.19;4952203;28;20071;-73
2023/04/06 07:51:28;;;;;;;27.05;18.48;;;;;;;4.89;65.94;101531.72;4918507;28;20039;-73
2023/04/06 07:53:53;;;;;;;25.98;19.13;;;;;;;4.92;65.87;101534.41;4909792;29;20047;-72
2023/04/06 07:56:20;;;;;;;25.15;17.90;;;;;;;4.97;66.33;101527.59;4940672;28;20415;-73
2023/04/06 07:58:46;;;;;;;28.67;16.88;;;;;;;5.06;65.23;101529.50;4943725;28;20054;-73
2023/04/06 08:01:12;;;;;;;28.23;17.88;;;;;;;5.09;65.71;101529.56;4929635;28;20113;-73
2023/04/06 08:03:37;;;;;;;24.25;16.90;;;;;;;5.14;64.91;101529.66;4938155;28;20057;-73
2023/04/06 08:06:03;;;;;;;24.60;17.35;;;;;;;5.17;63.46;101534.94;4936990;28;20051;-73
2023/04/06 08:08:30;;;;;;;27.02;17.73;;;;;;;5.22;63.84;101532.47;4929412;28;20043;-73
2023/04/06 08:10:56;;;;;;;25.85;17.08;;;;;;;5.27;64.35;101536.00;4950452;28;20159;-73
2023/04/06 08:13:21;;;;;;;23.85;17.77;;;;;;;5.31;63.89;101532.63;4936991;28;20502;-73
2023/04/06 08:15:47;;;;;;;23.42;16.88;;;;;;;5.36;63.83;101529.28;4933741;28;20130;-73
2023/04/06 08:18:13;;;;;;;24.67;17.02;;;;;;;5.40;63.53;101534.53;4905879;29;20066;-73
2023/04/06 08:20:39;;;;;;;23.77;15.90;;;;;;;5.46;62.50;101530.34;4923270;28;20125;-74
2023/04/06 08:23:06;;;;;;;26.58;17.45;;;;;;;5.51;63.57;101528.72;4944898;29;20511;-73
2023/04/06 08:25:33;;;;;;;28.58;17.65;;;;;;;5.56;62.96;101528.81;4961392;28;20038;-73
2023/04/06 08:27:58;;;;;;;24.73;17.27;;;;;;;5.63;64.06;101529.81;4921749;29;20057;-73
2023/04/06 08:30:24;;;;;;;24.90;16.17;;;;;;;5.65;62.35;101538.53;4943006;28;20039;-73
2023/04/06 08:32:49;;;;;;;26.88;17.02;;;;;;;5.66;63.13;101532.47;4917271;29;20083;-73
2023/04/06 08:35:15;;;;;;;26.58;16.45;;;;;;;5.68;62.84;101530.78;4916582;28;20058;-73
2023/04/06 08:37:40;;;;;;;25.73;16.75;;;;;;;5.78;64.29;101537.91;4944247;29;20054;-73
2023/04/06 08:40:06;;;;;;;29.05;16.85;;;;;;;5.84;63.37;101535.41;4937706;28;20046;-73
2023/04/06 08:42:33;;;;;;;30.33;18.90;;;;;;;5.84;62.04;101538.03;4925038;28;20042;-73
2023/04/06 08:44:59;;;;;;;25.60;16.98;;;;;;;5.90;62.47;101532.06;4957737;28;20057;-73
2023/04/06 08:47:25;;;;;;;24.50;16.67;;;;;;;5.95;61.89;101540.84;4968949;28;20106;-73
2023/04/06 08:49:53;;;;;;;24.45;16.52;;;;;;;5.99;61.36;101536.59;4969714;28;20039;-73
2023/04/06 08:52:19;;;;;;;27.20;16.92;;;;;;;6.11;63.65;101538.56;4952189;28;20373;-73
2023/04/06 08:54:45;;;;;;;26.02;16.58;;;;;;;6.17;62.08;101536.91;4974364;28;20117;-73
2023/04/06 08:57:11;;;;;;;26.40;17.30;;;;;;;6.27;61.43;101537.09;4955684;28;20419;-73
2023/04/06 08:59:38;;;;;;;23.27;16.67;;;;;;;6.32;61.38;101530.22;4958331;28;20117;-73
2023/04/06 09:02:06;;;;;;;25.40;16.27;;;;;;;6.43;61.96;101538.22;4958140;28;20402;-73
2023/04/06 09:04:36;;;;;;;22.10;16.50;;;;;;;6.51;62.39;101531.41;4955017;28;20117;-73
2023/04/06 09:07:01;;;;;;;25.13;17.02;;;;;;;6.61;62.85;101537.63;4959741;28;20065;-73
2023/04/06 09:09:27;;;;;;;27.35;17.15;;;;;;;6.73;63.32;101543.91;4927642;28;20467;-73
2023/04/06 09:11:53;;;;;;;26.30;16.85;;;;;;;6.79;61.14;101535.31;4931347;29;20102;-73
2023/04/06 09:14:37;;;;;;;27.63;16.27;;;;;;;6.81;60.57;101541.44;4956315;28;20435;-73
2023/04/06 09:17:05;;;;;;;29.33;16.73;;;;;;;6.87;61.62;101541.50;4942131;28;20038;-73
2023/04/06 09:20:08;;;;;;;24.00;16.67;;;;;;;6.93;60.11;101540.72;4963158;28;20167;-73
2023/04/06 09:22:38;;;;;;;25.40;16.65;;;;;;;7.04;60.78;101540.88;4938433;29;20043;-73
2023/04/06 09:25:04;;;;;;;26.67;17.10;;;;;;;7.13;61.06;101543.63;4938123;29;20035;-73
2023/04/06 09:27:34;;;;;;;25.95;17.58;;;;;;;7.19;61.18;101540.22;4939949;29;20035;-73
2023/04/06 09:30:05;;;;;;;26.27;17.93;;;;;;;7.35;60.94;101538.69;4940344;29;20049;-73
2023/04/06 09:32:30;;;;;;;;;;;;;;;7.40;60.77;101545.72;4940187;29;20290;-73
2023/04/06 09:35:08;;;;;;;27.85;17.35;;;;;;;7.50;61.97;101538.88;4921258;29;20240;-73
2023/04/06 09:37:34;;;;;;;28.10;17.58;;;;;;;7.66;63.14;101537.34;4931597;29;20336;-73
2023/04/06 09:40:19;;;;;;;25.23;16.35;;;;;;;7.81;63.86;101541.81;4938209;28;20527;-73
2023/04/06 09:42:46;;;;;;;27.48;17.17;;;;;;;7.94;60.81;101540.22;4939135;29;20511;-73
2023/04/06 09:45:12;;;;;;;28.70;17.65;;;;;;;8.10;62.33;101546.47;4922979;29;20043;-73
2023/04/06 09:47:40;;;;;;;26.60;18.10;;;;;;;8.19;63.31;101536.13;4914977;29;20110;-73
2023/04/06 09:50:08;;;;;;;22.85;15.93;;;;;;;8.25;61.07;101540.53;4923626;29;20197;-73
2023/04/06 09:52:42;;;;;;;24.20;17.35;;;;;;;8.42;63.36;101532.81;4937775;28;20254;-73
2023/04/06 09:55:08;;;;;;;22.02;15.70;;;;;;;8.46;62.13;101537.25;4938529;28;20407;-73
2023/04/06 09:58:04;;;;;;;25.70;15.73;;;;;;;8.59;63.14;101540.84;4929191;28;20503;-73
2023/04/06 10:00:33;;;;;;;22.67;15.73;;;;;;;8.72;62.69;101533.97;4952822;28;20039;-70
2023/04/06 10:03:08;;;;;;;25.83;16.35;;;;;;;8.88;65.41;101532.31;4934413;29;20037;-70
2023/04/06 10:05:43;;;;;;;20.40;14.77;;;;;;;8.95;63.04;101534.09;4955015;28;20050;-69
2023/04/06 10:08:10;;;;;;;22.83;15.23;;;;;;;9.00;63.31;101535.88;4938705;29;20440;-69
2023/04/06 10:10:37;;;;;;;21.27;15.02;;;;;;;8.93;61.47;101536.72;4938852;28;20098;-70
2023/04/06 10:13:03;;;;;;;20.38;15.38;;;;;;;8.98;63.94;101536.78;4938609;29;20126;-70
2023/04/06 10:15:29;;;;;;;21.42;14.48;;;;;;;9.10;65.21;101541.19;4939212;28;20059;-70
2023/04/06 10:17:56;;;;;;;20.40;14.13;;;;;;;9.06;64.63;101542.03;4897380;29;20062;-68
2023/04/06 10:20:50;;;;;;;18.50;13.43;;;;;;;8.92;63.48;101549.78;4939487;28;20574;-69
2023/04/06 10:23:36;;;;;;;17.38;13.15;;;;;;;8.97;65.25;101543.72;4958378;28;20062;-70
2023/04/06 10:26:02;;;;;;;19.05;12.90;;;;;;;9.05;65.43;101542.88;4957685;28;20031;-69
2023/04/06 10:28:36;;;;;;;19.92;13.77;;;;;;;9.00;64.94;101548.97;4951205;28;20053;-70
2023/04/06 10:31:05;;;;;;;21.45;14.40;;;;;;;8.88;65.62;101548.91;4930861;28;20027;-69
2023/04/06 10:33:30;;;;;;;20.45;13.85;;;;;;;8.80;65.55;101540.13;4956177;28;20049;-69
2023/04/06 10:35:56;;;;;;;19.38;13.70;;;;;;;8.77;67.40;101561.00;4958222;28;20030;-69
2023/04/06 10:38:33;;;;;;;21.13;13.30;;;;;;;8.72;68.28;101557.47;4955899;28;20042;-69
2023/04/06 10:41:07;;;;;;;19.23;13.38;;;;;;;8.59;67.51;101552.19;4957244;28;20046;-69
2023/04/06 10:43:37;;;;;;;20.50;13.27;;;;;;;8.58;68.65;101552.16;4972523;28;20038;-70
2023/04/06 10:46:05;;;;;;;20.38;13.20;;;;;;;8.54;68.05;101548.66;4957479;28;20493;-70
2023/04/06 10:48:42;;;;;;;15.63;12.00;;;;;;;8.62;69.73;101557.44;4936040;28;20043;-69
2023/04/06 10:51:13;;;;;;;14.65;11.10;;;;;;;8.46;69.76;101555.53;4956891;28;20386;-69
2023/04/06 10:53:48;;;;;;;17.05;10.88;;;;;;;8.22;70.10;101545.75;4956980;28;20487;-68
2023/04/06 10:56:17;;;;;;;15.65;10.38;;;;;;;8.02;70.41;101549.03;4955154;28;20376;-68
2023/04/06 10:58:52;;;;;;;14.52;9.75;;;;;;;7.91;71.02;101542.81;4943600;29;20119;-68
2023/04/06 11:01:22;;;;;;;14.00;9.30;;;;;;;7.91;72.40;101550.63;4947996;28;20034;-69
2023/04/06 11:03:53;;;;;;;15.13;10.05;;;;;;;7.79;71.97;101552.25;4922591;28;20043;-69
2023/04/06 11:06:25;;;;;;;16.10;9.52;;;;;;;7.76;73.72;101551.34;4948435;28;20069;-70
2023/04/06 11:08:51;;;;;;;14.45;9.52;;;;;;;7.62;73.33;101538.16;4947438;28;20057;-69
2023/04/06 11:11:20;;;;;;;13.77;9.38;;;;;;;7.54;73.66;101545.00;4976779;28;20069;-69
2023/04/06 11:13:50;;;;;;;14.30;9.63;;;;;;;7.53;75.09;101535.41;4952565;28;20050;-69
2023/04/06 11:16:18;;;;;;;13.30;8.95;;;;;;;7.55;76.74;101542.41;4953120;28;20073;-69
2023/04/06 11:19:03;;;;;;;13.30;9.38;;;;;;;7.49;76.25;101539.72;4955495;28;20043;-69
2023/04/06 11:21:39;;;;;;;13.32;8.75;;;;;;;7.41;77.45;101531.81;4911739;29;20387;-69
2023/04/06 11:24:12;;;;;;;14.13;7.95;;;;;;;7.31;76.45;101532.53;4943869;29;20483;-68
2023/04/06 11:27:00;;;;;;;11.77;7.32;;;;;;;7.23;76.01;101532.47;4956228;28;20487;-69
2023/04/06 11:29:30;;;;;;;10.15;7.10;;;;;;;7.04;77.23;101533.94;4956743;28;20129;-69
2023/04/06 11:32:06;;;;;;;11.00;7.28;;;;;;;6.99;78.61;101521.69;4954150;28;20046;-69
2023/04/06 11:34:38;;;;;;;10.13;7.10;;;;;;;6.99;77.08;101524.31;4956341;28;20537;-69
2023/04/06 11:37:08;;;;;;;10.07;6.45;;;;;;;6.92;78.13;101512.91;4949418;28;20041;-69
2023/04/06 11:39:40;;;;;;;10.30;6.60;;;;;;;6.88;77.89;101514.63;4963581;28;20351;-69
2023/04/06 11:42:06;;;;;;;11.30;6.63;;;;;;;6.87;79.04;101515.47;4954132;28;20034;-69
2023/04/06 11:44:39;;;;;;;12.10;7.10;;;;;;;6.85;79.81;101516.28;4939821;28;20812;-69
2023/04/06 11:47:07;;;;;;;9.07;6.90;;;;;;;6.83;79.65;101513.66;4967629;28;20039;-70
2023/04/06 11:49:36;;;;;;;10.45;7.38;;;;;;;6.87;80.48;101504.19;4948866;28;20129;-70
2023/04/06 11:52:02;;;;;;;12.45;7.63;;;;;;;6.88;80.75;101512.00;4938173;28;20491;-69
2023/04/06 11:54:32;;;;;;;11.38;8.43;;;;;;;6.85;81.56;101504.16;4947866;28;20041;-69
2023/04/06 11:56:57;;;;;;;12.45;8.50;;;;;;;6.89;81.65;101510.28;4937219;28;20048;-69
2023/04/06 11:59:23;;;;;;;11.48;8.02;;;;;;;6.84;80.16;101505.00;4932150;28;20559;-69
2023/04/06 12:01:48;;;;;;;12.63;8.40;;;;;;;6.90;81.78;101505.06;4938584;28;20063;-69
2023/04/06 12:04:14;;;;;;;13.10;9.10;;;;;;;7.01;82.53;101515.66;4928610;28;20050;-69
2023/04/06 12:06:40;;;;;;;14.02;9.23;;;;;;;7.03;82.32;101506.13;4935858;28;20098;-73
2023/04/06 12:09:05;;;;;;;12.57;8.95;;;;;;;7.03;80.88;101503.53;5141985;23;20054;-73
2023/04/06 12:14:01;;;;;;;13.40;9.55;;;;;;;7.08;81.75;101493.16;5054040;23;20062;-74
2023/04/06 12:21:35;;;;;;;14.38;9.65;;;;;;;7.09;81.41;101487.94;5237743;23;20051;-73
2023/04/06 12:24:00;;;;;;;14.25;10.00;;;;;;;7.11;82.53;101487.97;5282334;23;20051;-71
2023/04/06 12:26:27;;;;;;;15.02;9.73;;;;;;;7.23;83.88;101493.34;5290499;23;20061;-72
2023/04/06 12:39:13;;;;;;;14.98;10.20;;;;;;;7.13;84.16;101481.06;5644394;23;20025;-73
2023/04/06 12:41:41;;;;;;;13.27;9.88;;;;;;;7.04;83.06;101486.13;5090748;23;20048;-73
2023/04/06 12:46:40;;;;;;;14.75;10.73;;;;;;;6.88;85.28;101487.66;5048307;23;20415;-73
2023/04/06 12:49:06;;;;;;;14.35;10.63;;;;;;;6.84;84.99;101494.59;4922104;29;20036;-69
2023/04/06 12:51:31;;;;;;;15.43;11.30;;;;;;;6.82;86.44;101480.63;5203983;23;20066;-73
2023/04/06 12:53:57;;;;;;;14.88;10.93;;;;;;;6.83;87.03;101476.31;5299151;23;20054;-70
2023/04/06 12:59:03;;;;;;;14.70;10.60;;;;;;;6.75;87.41;101469.28;5129175;23;20078;-71
2023/04/06 13:01:29;;;;;;;17.88;11.77;;;;;;;6.76;87.48;101465.81;4929932;29;20068;-70